Terminal Aerodrome Forecast
Issued by NWS Duluth, MN

Home | Current Version | Previous Version | Text Only | Print | Product List | Glossary On
Versions: 1 2 3 4 5 6 7 8 9 10 11 12 13 14 15 16 17 18 19 20 21 22 23 24 25 26 27 28 29 30 31
000
FTUS43 KDLH 310300 AAA
TAFINL
TAF AMD
KINL 310302Z 3103/3124 19003KT P6SM -SHSN OVC018
     FM310900 32010KT P6SM BKN050
     FM311400 34011G18KT P6SM SCT024 BKN040
      TEMPO 3115/3119 5SM -SHSN BKN022=

USA.gov is the U.S. government's official web portal to all federal, state and local government web resources and services.